sensor_id;sensor_type;location;lat;lon;timestamp;P1;durP1;ratioP1;P2;durP2;ratioP2
33954;SDS011;20233;50.804;7.126;2024-01-30T00:00:09;17.77;;;11.27;;
33954;SDS011;20233;50.804;7.126;2024-01-30T00:02:36;16.50;;;10.65;;
33954;SDS011;20233;50.804;7.126;2024-01-30T00:05:02;18.25;;;11.63;;
33954;SDS011;20233;50.804;7.126;2024-01-30T00:07:29;17.38;;;10.95;;
33954;SDS011;20233;50.804;7.126;2024-01-30T00:09:54;17.05;;;11.15;;
33954;SDS011;20233;50.804;7.126;2024-01-30T00:12:21;15.02;;;11.07;;
33954;SDS011;20233;50.804;7.126;2024-01-30T00:14:47;17.58;;;10.52;;
33954;SDS011;20233;50.804;7.126;2024-01-30T00:17:14;20.10;;;11.75;;
33954;SDS011;20233;50.804;7.126;2024-01-30T00:19:40;17.33;;;11.80;;
33954;SDS011;20233;50.804;7.126;2024-01-30T00:22:06;18.23;;;11.65;;
33954;SDS011;20233;50.804;7.126;2024-01-30T00:24:33;16.55;;;11.23;;
33954;SDS011;20233;50.804;7.126;2024-01-30T00:26:59;18.55;;;11.25;;
33954;SDS011;20233;50.804;7.126;2024-01-30T00:29:25;20.63;;;11.27;;
33954;SDS011;20233;50.804;7.126;2024-01-30T00:31:55;17.15;;;11.77;;
33954;SDS011;20233;50.804;7.126;2024-01-30T00:34:22;17.58;;;11.50;;
33954;SDS011;20233;50.804;7.126;2024-01-30T00:36:49;15.48;;;10.90;;
33954;SDS011;20233;50.804;7.126;2024-01-30T00:39:15;19.58;;;12.10;;
33954;SDS011;20233;50.804;7.126;2024-01-30T00:41:41;19.27;;;11.43;;
33954;SDS011;20233;50.804;7.126;2024-01-30T00:44:08;16.95;;;11.77;;
33954;SDS011;20233;50.804;7.126;2024-01-30T00:46:34;18.77;;;11.95;;
33954;SDS011;20233;50.804;7.126;2024-01-30T00:49:00;16.08;;;10.32;;
33954;SDS011;20233;50.804;7.126;2024-01-30T00:51:27;17.17;;;11.02;;
33954;SDS011;20233;50.804;7.126;2024-01-30T00:53:55;16.77;;;11.50;;
33954;SDS011;20233;50.804;7.126;2024-01-30T00:56:21;18.60;;;10.88;;
33954;SDS011;20233;50.804;7.126;2024-01-30T00:58:49;16.92;;;10.98;;
33954;SDS011;20233;50.804;7.126;2024-01-30T01:01:16;17.65;;;10.85;;
33954;SDS011;20233;50.804;7.126;2024-01-30T01:03:42;17.67;;;11.20;;
33954;SDS011;20233;50.804;7.126;2024-01-30T01:06:09;15.65;;;10.63;;
33954;SDS011;20233;50.804;7.126;2024-01-30T01:08:36;18.58;;;11.13;;
33954;SDS011;20233;50.804;7.126;2024-01-30T01:11:02;16.73;;;10.88;;
33954;SDS011;20233;50.804;7.126;2024-01-30T01:13:28;17.63;;;11.00;;
33954;SDS011;20233;50.804;7.126;2024-01-30T01:15:54;19.55;;;10.98;;
33954;SDS011;20233;50.804;7.126;2024-01-30T01:18:21;17.58;;;11.23;;
33954;SDS011;20233;50.804;7.126;2024-01-30T01:20:46;15.13;;;10.48;;
33954;SDS011;20233;50.804;7.126;2024-01-30T01:23:12;17.48;;;10.63;;
33954;SDS011;20233;50.804;7.126;2024-01-30T01:25:39;17.58;;;10.65;;
33954;SDS011;20233;50.804;7.126;2024-01-30T01:28:05;17.42;;;10.70;;
33954;SDS011;20233;50.804;7.126;2024-01-30T01:30:32;15.43;;;11.18;;
33954;SDS011;20233;50.804;7.126;2024-01-30T01:32:57;16.42;;;10.88;;
33954;SDS011;20233;50.804;7.126;2024-01-30T01:35:27;18.88;;;10.95;;
33954;SDS011;20233;50.804;7.126;2024-01-30T01:37:53;16.52;;;10.57;;
33954;SDS011;20233;50.804;7.126;2024-01-30T01:40:23;15.88;;;10.50;;
33954;SDS011;20233;50.804;7.126;2024-01-30T01:42:51;21.60;;;11.27;;
33954;SDS011;20233;50.804;7.126;2024-01-30T01:45:18;15.50;;;10.48;;
33954;SDS011;20233;50.804;7.126;2024-01-30T01:47:47;16.33;;;10.90;;
33954;SDS011;20233;50.804;7.126;2024-01-30T01:50:16;17.13;;;10.63;;
33954;SDS011;20233;50.804;7.126;2024-01-30T01:52:47;15.65;;;9.90;;
33954;SDS011;20233;50.804;7.126;2024-01-30T01:55:15;20.20;;;11.02;;
33954;SDS011;20233;50.804;7.126;2024-01-30T01:57:47;15.68;;;10.13;;
33954;SDS011;20233;50.804;7.126;2024-01-30T02:00:14;15.45;;;10.55;;
33954;SDS011;20233;50.804;7.126;2024-01-30T02:02:40;17.70;;;11.65;;
33954;SDS011;20233;50.804;7.126;2024-01-30T02:05:08;15.90;;;10.27;;
33954;SDS011;20233;50.804;7.126;2024-01-30T02:07:35;17.42;;;10.55;;
33954;SDS011;20233;50.804;7.126;2024-01-30T02:10:01;16.85;;;10.18;;
33954;SDS011;20233;50.804;7.126;2024-01-30T02:12:29;15.98;;;10.73;;
33954;SDS011;20233;50.804;7.126;2024-01-30T02:14:54;17.13;;;10.82;;
33954;SDS011;20233;50.804;7.126;2024-01-30T02:17:21;16.38;;;10.55;;
33954;SDS011;20233;50.804;7.126;2024-01-30T02:19:48;17.67;;;11.15;;
33954;SDS011;20233;50.804;7.126;2024-01-30T02:22:15;15.38;;;10.93;;
33954;SDS011;20233;50.804;7.126;2024-01-30T02:24:43;17.00;;;9.82;;
33954;SDS011;20233;50.804;7.126;2024-01-30T02:27:10;14.40;;;10.52;;
33954;SDS011;20233;50.804;7.126;2024-01-30T02:29:36;16.85;;;10.75;;
33954;SDS011;20233;50.804;7.126;2024-01-30T02:32:03;15.63;;;10.77;;
33954;SDS011;20233;50.804;7.126;2024-01-30T02:34:29;15.82;;;10.60;;
33954;SDS011;20233;50.804;7.126;2024-01-30T02:36:55;18.00;;;10.68;;
33954;SDS011;20233;50.804;7.126;2024-01-30T02:39:22;15.63;;;10.23;;
33954;SDS011;20233;50.804;7.126;2024-01-30T02:41:48;16.50;;;10.90;;
33954;SDS011;20233;50.804;7.126;2024-01-30T02:44:14;16.45;;;11.93;;
33954;SDS011;20233;50.804;7.126;2024-01-30T02:46:41;17.08;;;10.52;;
33954;SDS011;20233;50.804;7.126;2024-01-30T02:49:08;17.58;;;10.75;;
33954;SDS011;20233;50.804;7.126;2024-01-30T02:51:35;15.30;;;9.75;;
33954;SDS011;20233;50.804;7.126;2024-01-30T02:54:01;15.63;;;9.95;;
33954;SDS011;20233;50.804;7.126;2024-01-30T02:56:27;17.90;;;12.00;;
33954;SDS011;20233;50.804;7.126;2024-01-30T02:58:53;16.95;;;10.43;;
33954;SDS011;20233;50.804;7.126;2024-01-30T03:01:20;15.43;;;9.55;;
33954;SDS011;20233;50.804;7.126;2024-01-30T03:03:46;17.50;;;10.32;;
33954;SDS011;20233;50.804;7.126;2024-01-30T03:06:13;15.75;;;10.60;;
33954;SDS011;20233;50.804;7.126;2024-01-30T03:08:42;14.68;;;9.82;;
33954;SDS011;20233;50.804;7.126;2024-01-30T03:11:08;18.17;;;10.75;;
33954;SDS011;20233;50.804;7.126;2024-01-30T03:13:35;15.00;;;9.43;;
33954;SDS011;20233;50.804;7.126;2024-01-30T03:16:01;15.63;;;9.45;;
33954;SDS011;20233;50.804;7.126;2024-01-30T03:18:28;15.73;;;9.85;;
33954;SDS011;20233;50.804;7.126;2024-01-30T03:20:54;19.20;;;11.05;;
33954;SDS011;20233;50.804;7.126;2024-01-30T03:23:20;14.00;;;9.95;;
33954;SDS011;20233;50.804;7.126;2024-01-30T03:25:47;14.48;;;9.57;;
33954;SDS011;20233;50.804;7.126;2024-01-30T03:28:14;17.52;;;10.80;;
33954;SDS011;20233;50.804;7.126;2024-01-30T03:30:41;14.23;;;10.10;;
33954;SDS011;20233;50.804;7.126;2024-01-30T03:33:08;16.80;;;10.55;;
33954;SDS011;20233;50.804;7.126;2024-01-30T03:35:34;17.33;;;10.40;;
33954;SDS011;20233;50.804;7.126;2024-01-30T03:38:00;15.98;;;10.18;;
33954;SDS011;20233;50.804;7.126;2024-01-30T03:40:28;17.52;;;9.60;;
33954;SDS011;20233;50.804;7.126;2024-01-30T03:42:54;15.50;;;10.23;;
33954;SDS011;20233;50.804;7.126;2024-01-30T03:45:20;14.15;;;9.18;;
33954;SDS011;20233;50.804;7.126;2024-01-30T03:47:47;17.25;;;10.05;;
33954;SDS011;20233;50.804;7.126;2024-01-30T03:50:13;17.27;;;10.23;;
33954;SDS011;20233;50.804;7.126;2024-01-30T03:52:40;17.42;;;10.75;;
33954;SDS011;20233;50.804;7.126;2024-01-30T03:55:06;16.88;;;10.40;;
33954;SDS011;20233;50.804;7.126;2024-01-30T03:57:33;15.30;;;9.43;;
33954;SDS011;20233;50.804;7.126;2024-01-30T03:59:59;16.10;;;9.95;;
33954;SDS011;20233;50.804;7.126;2024-01-30T04:02:26;15.50;;;10.23;;
33954;SDS011;20233;50.804;7.126;2024-01-30T04:04:54;17.85;;;9.68;;
33954;SDS011;20233;50.804;7.126;2024-01-30T04:07:21;16.27;;;9.93;;
33954;SDS011;20233;50.804;7.126;2024-01-30T04:09:48;16.63;;;10.00;;
33954;SDS011;20233;50.804;7.126;2024-01-30T04:12:14;17.73;;;10.10;;
33954;SDS011;20233;50.804;7.126;2024-01-30T04:14:42;14.15;;;10.48;;
33954;SDS011;20233;50.804;7.126;2024-01-30T04:17:09;19.67;;;11.40;;
33954;SDS011;20233;50.804;7.126;2024-01-30T04:19:39;20.85;;;12.45;;
33954;SDS011;20233;50.804;7.126;2024-01-30T04:22:06;16.50;;;11.02;;
33954;SDS011;20233;50.804;7.126;2024-01-30T04:24:32;19.83;;;10.93;;
33954;SDS011;20233;50.804;7.126;2024-01-30T04:26:58;18.15;;;10.90;;
33954;SDS011;20233;50.804;7.126;2024-01-30T04:29:25;16.50;;;10.18;;
33954;SDS011;20233;50.804;7.126;2024-01-30T04:31:52;16.05;;;10.40;;
33954;SDS011;20233;50.804;7.126;2024-01-30T04:34:18;16.48;;;9.73;;
33954;SDS011;20233;50.804;7.126;2024-01-30T04:36:45;14.50;;;9.88;;
33954;SDS011;20233;50.804;7.126;2024-01-30T04:39:12;15.90;;;10.98;;
33954;SDS011;20233;50.804;7.126;2024-01-30T04:41:38;16.67;;;10.23;;
33954;SDS011;20233;50.804;7.126;2024-01-30T04:44:05;15.05;;;9.93;;
33954;SDS011;20233;50.804;7.126;2024-01-30T04:46:32;13.88;;;9.52;;
33954;SDS011;20233;50.804;7.126;2024-01-30T04:48:59;14.43;;;9.65;;
33954;SDS011;20233;50.804;7.126;2024-01-30T04:51:26;15.40;;;10.32;;
33954;SDS011;20233;50.804;7.126;2024-01-30T04:53:52;16.13;;;10.30;;
33954;SDS011;20233;50.804;7.126;2024-01-30T04:56:19;15.57;;;10.15;;
33954;SDS011;20233;50.804;7.126;2024-01-30T04:58:45;16.52;;;9.80;;
33954;SDS011;20233;50.804;7.126;2024-01-30T05:01:14;19.15;;;9.88;;
33954;SDS011;20233;50.804;7.126;2024-01-30T05:03:42;20.60;;;10.77;;
33954;SDS011;20233;50.804;7.126;2024-01-30T05:06:09;15.95;;;10.35;;
33954;SDS011;20233;50.804;7.126;2024-01-30T05:08:35;15.27;;;10.35;;
33954;SDS011;20233;50.804;7.126;2024-01-30T05:11:05;14.60;;;10.35;;
33954;SDS011;20233;50.804;7.126;2024-01-30T05:13:32;22.10;;;10.55;;
33954;SDS011;20233;50.804;7.126;2024-01-30T05:15:59;16.73;;;10.77;;
33954;SDS011;20233;50.804;7.126;2024-01-30T05:18:29;18.77;;;10.52;;
33954;SDS011;20233;50.804;7.126;2024-01-30T05:20:55;18.88;;;10.90;;
33954;SDS011;20233;50.804;7.126;2024-01-30T05:23:21;16.27;;;9.82;;
33954;SDS011;20233;50.804;7.126;2024-01-30T05:25:49;14.27;;;10.02;;
33954;SDS011;20233;50.804;7.126;2024-01-30T05:28:15;15.63;;;10.15;;
33954;SDS011;20233;50.804;7.126;2024-01-30T05:30:41;18.80;;;10.65;;
33954;SDS011;20233;50.804;7.126;2024-01-30T05:33:07;14.77;;;10.07;;
33954;SDS011;20233;50.804;7.126;2024-01-30T05:35:34;14.13;;;10.43;;
33954;SDS011;20233;50.804;7.126;2024-01-30T05:38:00;16.17;;;10.60;;
33954;SDS011;20233;50.804;7.126;2024-01-30T05:40:27;18.95;;;11.60;;
33954;SDS011;20233;50.804;7.126;2024-01-30T05:42:53;18.52;;;10.55;;
33954;SDS011;20233;50.804;7.126;2024-01-30T05:45:19;16.50;;;10.52;;
33954;SDS011;20233;50.804;7.126;2024-01-30T05:47:45;16.42;;;10.45;;
33954;SDS011;20233;50.804;7.126;2024-01-30T05:50:12;17.45;;;11.70;;
33954;SDS011;20233;50.804;7.126;2024-01-30T05:52:39;17.15;;;10.93;;
33954;SDS011;20233;50.804;7.126;2024-01-30T05:55:05;20.70;;;11.77;;
33954;SDS011;20233;50.804;7.126;2024-01-30T05:57:32;19.25;;;10.52;;
33954;SDS011;20233;50.804;7.126;2024-01-30T05:59:58;17.80;;;11.48;;
33954;SDS011;20233;50.804;7.126;2024-01-30T06:02:25;19.38;;;10.90;;
33954;SDS011;20233;50.804;7.126;2024-01-30T06:04:51;16.45;;;10.35;;
33954;SDS011;20233;50.804;7.126;2024-01-30T06:07:17;16.00;;;10.85;;
33954;SDS011;20233;50.804;7.126;2024-01-30T06:09:43;14.68;;;10.68;;
33954;SDS011;20233;50.804;7.126;2024-01-30T06:12:11;15.45;;;10.55;;
33954;SDS011;20233;50.804;7.126;2024-01-30T06:14:37;15.27;;;9.63;;
33954;SDS011;20233;50.804;7.126;2024-01-30T06:17:04;16.52;;;11.07;;
33954;SDS011;20233;50.804;7.126;2024-01-30T06:19:30;17.27;;;10.02;;
33954;SDS011;20233;50.804;7.126;2024-01-30T06:21:56;22.77;;;10.68;;
33954;SDS011;20233;50.804;7.126;2024-01-30T06:24:23;22.35;;;12.13;;
33954;SDS011;20233;50.804;7.126;2024-01-30T06:26:50;17.15;;;11.80;;
33954;SDS011;20233;50.804;7.126;2024-01-30T06:29:17;20.25;;;11.48;;
33954;SDS011;20233;50.804;7.126;2024-01-30T06:31:43;17.45;;;10.90;;
33954;SDS011;20233;50.804;7.126;2024-01-30T06:34:10;18.45;;;10.63;;
33954;SDS011;20233;50.804;7.126;2024-01-30T06:36:37;22.00;;;11.55;;
33954;SDS011;20233;50.804;7.126;2024-01-30T06:39:04;16.60;;;11.05;;
33954;SDS011;20233;50.804;7.126;2024-01-30T06:41:31;18.38;;;10.85;;
33954;SDS011;20233;50.804;7.126;2024-01-30T06:43:57;16.95;;;11.02;;
33954;SDS011;20233;50.804;7.126;2024-01-30T06:46:24;18.15;;;11.52;;
33954;SDS011;20233;50.804;7.126;2024-01-30T06:48:52;17.08;;;10.95;;
33954;SDS011;20233;50.804;7.126;2024-01-30T06:51:19;14.07;;;10.70;;
33954;SDS011;20233;50.804;7.126;2024-01-30T06:53:46;19.50;;;10.70;;
33954;SDS011;20233;50.804;7.126;2024-01-30T06:56:13;18.30;;;10.55;;
33954;SDS011;20233;50.804;7.126;2024-01-30T06:58:39;20.65;;;11.45;;
33954;SDS011;20233;50.804;7.126;2024-01-30T07:01:05;19.58;;;10.95;;
33954;SDS011;20233;50.804;7.126;2024-01-30T07:03:32;19.02;;;11.25;;
33954;SDS011;20233;50.804;7.126;2024-01-30T07:05:58;19.38;;;10.93;;
33954;SDS011;20233;50.804;7.126;2024-01-30T07:08:25;19.58;;;10.65;;
33954;SDS011;20233;50.804;7.126;2024-01-30T07:10:52;19.83;;;11.30;;
33954;SDS011;20233;50.804;7.126;2024-01-30T07:13:20;17.35;;;10.93;;
33954;SDS011;20233;50.804;7.126;2024-01-30T07:15:47;16.35;;;11.02;;
33954;SDS011;20233;50.804;7.126;2024-01-30T07:18:14;19.95;;;11.95;;
33954;SDS011;20233;50.804;7.126;2024-01-30T07:20:40;20.30;;;11.68;;
33954;SDS011;20233;50.804;7.126;2024-01-30T07:23:13;21.65;;;11.88;;
33954;SDS011;20233;50.804;7.126;2024-01-30T07:25:42;17.17;;;12.23;;
33954;SDS011;20233;50.804;7.126;2024-01-30T07:28:10;19.95;;;12.88;;
33954;SDS011;20233;50.804;7.126;2024-01-30T07:30:41;18.27;;;11.40;;
33954;SDS011;20233;50.804;7.126;2024-01-30T07:33:08;24.08;;;12.32;;
33954;SDS011;20233;50.804;7.126;2024-01-30T07:35:36;21.17;;;11.63;;
33954;SDS011;20233;50.804;7.126;2024-01-30T07:38:02;18.17;;;11.77;;
33954;SDS011;20233;50.804;7.126;2024-01-30T07:40:28;20.65;;;11.23;;
33954;SDS011;20233;50.804;7.126;2024-01-30T07:42:55;17.33;;;10.75;;
33954;SDS011;20233;50.804;7.126;2024-01-30T07:45:22;18.67;;;11.20;;
33954;SDS011;20233;50.804;7.126;2024-01-30T07:47:50;18.30;;;10.57;;
33954;SDS011;20233;50.804;7.126;2024-01-30T07:50:17;18.77;;;9.90;;
33954;SDS011;20233;50.804;7.126;2024-01-30T07:52:44;19.63;;;10.32;;
33954;SDS011;20233;50.804;7.126;2024-01-30T07:55:11;16.50;;;11.35;;
33954;SDS011;20233;50.804;7.126;2024-01-30T07:57:40;16.85;;;10.90;;
33954;SDS011;20233;50.804;7.126;2024-01-30T08:00:08;16.17;;;11.05;;
33954;SDS011;20233;50.804;7.126;2024-01-30T08:02:35;16.45;;;11.07;;
33954;SDS011;20233;50.804;7.126;2024-01-30T08:05:01;19.85;;;12.18;;
33954;SDS011;20233;50.804;7.126;2024-01-30T08:07:27;19.63;;;11.88;;
33954;SDS011;20233;50.804;7.126;2024-01-30T08:09:55;17.15;;;12.07;;
33954;SDS011;20233;50.804;7.126;2024-01-30T08:12:21;19.58;;;11.20;;
33954;SDS011;20233;50.804;7.126;2024-01-30T08:14:47;19.35;;;11.02;;
33954;SDS011;20233;50.804;7.126;2024-01-30T08:17:14;20.00;;;12.23;;
33954;SDS011;20233;50.804;7.126;2024-01-30T08:19:40;21.27;;;12.57;;
33954;SDS011;20233;50.804;7.126;2024-01-30T08:22:06;16.42;;;11.45;;
33954;SDS011;20233;50.804;7.126;2024-01-30T08:24:32;21.58;;;13.07;;
33954;SDS011;20233;50.804;7.126;2024-01-30T08:26:58;23.17;;;12.85;;
33954;SDS011;20233;50.804;7.126;2024-01-30T08:29:27;18.20;;;11.48;;
33954;SDS011;20233;50.804;7.126;2024-01-30T08:31:53;20.55;;;12.32;;
33954;SDS011;20233;50.804;7.126;2024-01-30T08:34:21;19.40;;;12.38;;
33954;SDS011;20233;50.804;7.126;2024-01-30T08:36:47;16.25;;;11.75;;
33954;SDS011;20233;50.804;7.126;2024-01-30T08:39:14;18.60;;;11.75;;
33954;SDS011;20233;50.804;7.126;2024-01-30T08:41:41;20.35;;;12.18;;
33954;SDS011;20233;50.804;7.126;2024-01-30T08:44:08;20.42;;;11.98;;
33954;SDS011;20233;50.804;7.126;2024-01-30T08:46:36;18.67;;;11.43;;
33954;SDS011;20233;50.804;7.126;2024-01-30T08:49:03;14.02;;;9.90;;
33954;SDS011;20233;50.804;7.126;2024-01-30T08:51:33;18.10;;;11.75;;
33954;SDS011;20233;50.804;7.126;2024-01-30T08:53:59;18.80;;;11.25;;
33954;SDS011;20233;50.804;7.126;2024-01-30T08:56:26;17.42;;;11.15;;
33954;SDS011;20233;50.804;7.126;2024-01-30T08:58:53;20.98;;;12.38;;
33954;SDS011;20233;50.804;7.126;2024-01-30T09:01:19;17.25;;;10.27;;
33954;SDS011;20233;50.804;7.126;2024-01-30T09:03:46;18.90;;;11.23;;
33954;SDS011;20233;50.804;7.126;2024-01-30T09:06:14;19.45;;;10.80;;
33954;SDS011;20233;50.804;7.126;2024-01-30T09:08:40;20.40;;;11.88;;
33954;SDS011;20233;50.804;7.126;2024-01-30T09:11:09;23.70;;;11.80;;
33954;SDS011;20233;50.804;7.126;2024-01-30T09:13:40;20.25;;;11.15;;
33954;SDS011;20233;50.804;7.126;2024-01-30T09:16:06;20.25;;;11.30;;
33954;SDS011;20233;50.804;7.126;2024-01-30T09:18:32;18.05;;;10.98;;
33954;SDS011;20233;50.804;7.126;2024-01-30T09:20:58;19.05;;;11.80;;
33954;SDS011;20233;50.804;7.126;2024-01-30T09:23:26;15.32;;;10.70;;
33954;SDS011;20233;50.804;7.126;2024-01-30T09:25:53;20.35;;;11.35;;
33954;SDS011;20233;50.804;7.126;2024-01-30T09:28:21;18.83;;;12.98;;
33954;SDS011;20233;50.804;7.126;2024-01-30T09:30:48;15.40;;;10.95;;
33954;SDS011;20233;50.804;7.126;2024-01-30T09:33:15;17.88;;;11.40;;
33954;SDS011;20233;50.804;7.126;2024-01-30T09:35:41;18.98;;;10.98;;
33954;SDS011;20233;50.804;7.126;2024-01-30T09:38:08;17.83;;;11.63;;
33954;SDS011;20233;50.804;7.126;2024-01-30T09:40:35;17.90;;;11.13;;
33954;SDS011;20233;50.804;7.126;2024-01-30T09:43:02;16.55;;;10.13;;
33954;SDS011;20233;50.804;7.126;2024-01-30T09:45:28;17.67;;;11.07;;
33954;SDS011;20233;50.804;7.126;2024-01-30T09:47:58;16.15;;;10.48;;
33954;SDS011;20233;50.804;7.126;2024-01-30T09:50:26;18.00;;;10.05;;
33954;SDS011;20233;50.804;7.126;2024-01-30T09:52:53;18.40;;;10.10;;
33954;SDS011;20233;50.804;7.126;2024-01-30T09:55:21;14.07;;;9.57;;
33954;SDS011;20233;50.804;7.126;2024-01-30T09:57:58;15.48;;;10.52;;
33954;SDS011;20233;50.804;7.126;2024-01-30T10:00:27;16.83;;;10.27;;
33954;SDS011;20233;50.804;7.126;2024-01-30T10:02:54;15.93;;;9.80;;
33954;SDS011;20233;50.804;7.126;2024-01-30T10:05:20;14.70;;;9.48;;
33954;SDS011;20233;50.804;7.126;2024-01-30T10:07:59;16.10;;;9.70;;
33954;SDS011;20233;50.804;7.126;2024-01-30T10:10:25;14.20;;;9.25;;
33954;SDS011;20233;50.804;7.126;2024-01-30T10:12:52;13.88;;;9.90;;
33954;SDS011;20233;50.804;7.126;2024-01-30T10:15:20;15.30;;;9.75;;
33954;SDS011;20233;50.804;7.126;2024-01-30T10:17:49;17.02;;;9.60;;
33954;SDS011;20233;50.804;7.126;2024-01-30T10:20:16;14.35;;;9.43;;
33954;SDS011;20233;50.804;7.126;2024-01-30T10:22:44;14.35;;;8.70;;
33954;SDS011;20233;50.804;7.126;2024-01-30T10:25:11;15.35;;;9.05;;
33954;SDS011;20233;50.804;7.126;2024-01-30T10:27:39;16.85;;;9.00;;
33954;SDS011;20233;50.804;7.126;2024-01-30T10:30:05;13.38;;;9.27;;
33954;SDS011;20233;50.804;7.126;2024-01-30T10:32:32;13.43;;;8.05;;
33954;SDS011;20233;50.804;7.126;2024-01-30T10:34:58;14.00;;;7.75;;
33954;SDS011;20233;50.804;7.126;2024-01-30T10:37:25;13.77;;;7.90;;
33954;SDS011;20233;50.804;7.126;2024-01-30T10:39:55;15.73;;;7.25;;
33954;SDS011;20233;50.804;7.126;2024-01-30T10:42:27;14.13;;;7.50;;
33954;SDS011;20233;50.804;7.126;2024-01-30T10:47:30;12.15;;;5.97;;
33954;SDS011;20233;50.804;7.126;2024-01-30T10:49:56;11.98;;;6.20;;
33954;SDS011;20233;50.804;7.126;2024-01-30T10:52:23;10.80;;;6.13;;
33954;SDS011;20233;50.804;7.126;2024-01-30T10:54:59;12.90;;;5.68;;
33954;SDS011;20233;50.804;7.126;2024-01-30T10:57:27;12.38;;;6.10;;
33954;SDS011;20233;50.804;7.126;2024-01-30T10:59:58;8.35;;;5.85;;
33954;SDS011;20233;50.804;7.126;2024-01-30T11:02:26;10.27;;;6.78;;
33954;SDS011;20233;50.804;7.126;2024-01-30T11:04:57;10.73;;;7.07;;
33954;SDS011;20233;50.804;7.126;2024-01-30T11:07:25;13.50;;;6.72;;
33954;SDS011;20233;50.804;7.126;2024-01-30T11:09:59;10.32;;;6.68;;
33954;SDS011;20233;50.804;7.126;2024-01-30T11:12:28;8.38;;;6.47;;
33954;SDS011;20233;50.804;7.126;2024-01-30T11:15:01;13.30;;;6.72;;
33954;SDS011;20233;50.804;7.126;2024-01-30T11:22:50;8.73;;;5.68;;
33954;SDS011;20233;50.804;7.126;2024-01-30T11:25:19;14.13;;;6.75;;
33954;SDS011;20233;50.804;7.126;2024-01-30T11:27:49;10.02;;;6.43;;
33954;SDS011;20233;50.804;7.126;2024-01-30T11:30:30;17.23;;;6.53;;
33954;SDS011;20233;50.804;7.126;2024-01-30T11:35:43;8.18;;;6.18;;
33954;SDS011;20233;50.804;7.126;2024-01-30T11:38:11;10.85;;;6.30;;
33954;SDS011;20233;50.804;7.126;2024-01-30T11:40:40;10.73;;;6.00;;
33954;SDS011;20233;50.804;7.126;2024-01-30T11:43:07;8.25;;;6.15;;
33954;SDS011;20233;50.804;7.126;2024-01-30T11:45:35;9.35;;;6.53;;
33954;SDS011;20233;50.804;7.126;2024-01-30T11:48:02;14.68;;;6.45;;
33954;SDS011;20233;50.804;7.126;2024-01-30T11:50:30;10.02;;;6.25;;
33954;SDS011;20233;50.804;7.126;2024-01-30T11:52:56;10.60;;;5.93;;
33954;SDS011;20233;50.804;7.126;2024-01-30T11:55:23;11.52;;;7.35;;
33954;SDS011;20233;50.804;7.126;2024-01-30T11:57:51;9.93;;;6.40;;
33954;SDS011;20233;50.804;7.126;2024-01-30T12:00:20;10.52;;;6.15;;
33954;SDS011;20233;50.804;7.126;2024-01-30T12:02:53;7.68;;;5.90;;
33954;SDS011;20233;50.804;7.126;2024-01-30T12:05:24;11.93;;;6.50;;
33954;SDS011;20233;50.804;7.126;2024-01-30T12:07:52;9.65;;;5.50;;
33954;SDS011;20233;50.804;7.126;2024-01-30T12:10:19;9.75;;;6.30;;
33954;SDS011;20233;50.804;7.126;2024-01-30T12:12:47;10.40;;;5.75;;
33954;SDS011;20233;50.804;7.126;2024-01-30T12:15:15;11.15;;;5.57;;
33954;SDS011;20233;50.804;7.126;2024-01-30T12:17:43;9.25;;;5.97;;
33954;SDS011;20233;50.804;7.126;2024-01-30T12:20:13;12.43;;;6.35;;
33954;SDS011;20233;50.804;7.126;2024-01-30T12:22:44;13.02;;;6.10;;
33954;SDS011;20233;50.804;7.126;2024-01-30T12:25:13;15.02;;;6.28;;
33954;SDS011;20233;50.804;7.126;2024-01-30T12:27:44;12.55;;;6.20;;
33954;SDS011;20233;50.804;7.126;2024-01-30T12:30:16;11.95;;;6.40;;
33954;SDS011;20233;50.804;7.126;2024-01-30T12:32:46;9.07;;;6.50;;
33954;SDS011;20233;50.804;7.126;2024-01-30T12:35:15;12.35;;;6.05;;
33954;SDS011;20233;50.804;7.126;2024-01-30T12:37:43;12.13;;;6.35;;
33954;SDS011;20233;50.804;7.126;2024-01-30T12:40:11;11.65;;;6.03;;
33954;SDS011;20233;50.804;7.126;2024-01-30T12:42:40;9.52;;;5.85;;
33954;SDS011;20233;50.804;7.126;2024-01-30T12:45:08;9.35;;;6.18;;
33954;SDS011;20233;50.804;7.126;2024-01-30T12:47:35;10.43;;;5.75;;
33954;SDS011;20233;50.804;7.126;2024-01-30T12:50:01;13.30;;;6.97;;
33954;SDS011;20233;50.804;7.126;2024-01-30T12:52:28;11.73;;;6.35;;
33954;SDS011;20233;50.804;7.126;2024-01-30T12:54:55;11.60;;;5.97;;
33954;SDS011;20233;50.804;7.126;2024-01-30T12:57:22;11.15;;;6.72;;
33954;SDS011;20233;50.804;7.126;2024-01-30T12:59:49;13.55;;;7.40;;
33954;SDS011;20233;50.804;7.126;2024-01-30T13:02:16;9.43;;;5.90;;
33954;SDS011;20233;50.804;7.126;2024-01-30T13:04:43;9.30;;;5.85;;
33954;SDS011;20233;50.804;7.126;2024-01-30T13:07:10;12.75;;;7.20;;
33954;SDS011;20233;50.804;7.126;2024-01-30T13:09:37;8.15;;;6.22;;
33954;SDS011;20233;50.804;7.126;2024-01-30T13:12:03;10.25;;;6.10;;
33954;SDS011;20233;50.804;7.126;2024-01-30T13:14:30;10.75;;;6.50;;
33954;SDS011;20233;50.804;7.126;2024-01-30T13:16:56;13.85;;;8.00;;
33954;SDS011;20233;50.804;7.126;2024-01-30T13:19:23;12.43;;;7.55;;
33954;SDS011;20233;50.804;7.126;2024-01-30T13:21:49;11.45;;;7.25;;
33954;SDS011;20233;50.804;7.126;2024-01-30T13:24:16;12.30;;;7.30;;
33954;SDS011;20233;50.804;7.126;2024-01-30T13:26:46;12.50;;;6.85;;
33954;SDS011;20233;50.804;7.126;2024-01-30T13:29:14;10.07;;;6.82;;
33954;SDS011;20233;50.804;7.126;2024-01-30T13:31:53;11.32;;;7.40;;
33954;SDS011;20233;50.804;7.126;2024-01-30T13:34:19;16.52;;;7.35;;
33954;SDS011;20233;50.804;7.126;2024-01-30T13:36:45;13.30;;;7.05;;
33954;SDS011;20233;50.804;7.126;2024-01-30T13:39:14;13.85;;;6.82;;
33954;SDS011;20233;50.804;7.126;2024-01-30T13:41:43;9.90;;;6.72;;
33954;SDS011;20233;50.804;7.126;2024-01-30T13:44:09;9.02;;;6.13;;
33954;SDS011;20233;50.804;7.126;2024-01-30T13:46:36;13.70;;;7.68;;
33954;SDS011;20233;50.804;7.126;2024-01-30T13:49:04;10.15;;;6.55;;
33954;SDS011;20233;50.804;7.126;2024-01-30T13:51:31;10.50;;;6.53;;
33954;SDS011;20233;50.804;7.126;2024-01-30T13:53:57;9.73;;;6.38;;
33954;SDS011;20233;50.804;7.126;2024-01-30T13:56:23;8.82;;;6.32;;
33954;SDS011;20233;50.804;7.126;2024-01-30T13:58:52;12.57;;;6.75;;
33954;SDS011;20233;50.804;7.126;2024-01-30T14:01:21;12.38;;;6.60;;
33954;SDS011;20233;50.804;7.126;2024-01-30T14:03:47;9.95;;;5.90;;
33954;SDS011;20233;50.804;7.126;2024-01-30T14:06:14;12.18;;;6.70;;
33954;SDS011;20233;50.804;7.126;2024-01-30T14:08:40;9.40;;;6.28;;
33954;SDS011;20233;50.804;7.126;2024-01-30T14:11:06;12.32;;;6.97;;
33954;SDS011;20233;50.804;7.126;2024-01-30T14:13:32;10.90;;;7.40;;
33954;SDS011;20233;50.804;7.126;2024-01-30T14:16:01;11.30;;;7.03;;
33954;SDS011;20233;50.804;7.126;2024-01-30T14:18:28;13.48;;;7.20;;
33954;SDS011;20233;50.804;7.126;2024-01-30T14:20:55;9.45;;;6.82;;
33954;SDS011;20233;50.804;7.126;2024-01-30T14:23:21;11.55;;;7.13;;
33954;SDS011;20233;50.804;7.126;2024-01-30T14:25:48;14.68;;;6.85;;
33954;SDS011;20233;50.804;7.126;2024-01-30T14:28:17;12.32;;;7.50;;
33954;SDS011;20233;50.804;7.126;2024-01-30T14:30:44;11.55;;;6.88;;
33954;SDS011;20233;50.804;7.126;2024-01-30T14:33:11;13.85;;;7.75;;
33954;SDS011;20233;50.804;7.126;2024-01-30T14:35:41;9.73;;;6.68;;
33954;SDS011;20233;50.804;7.126;2024-01-30T14:38:08;9.75;;;7.15;;